Time;durP1;ratioP1;P1;durP2;ratioP2;P2;SDS_P1;SDS_P2;PMS_P1;PMS_P2;Temp;Humidity;BMP_temperature;BMP_pressure;BME280_temperature;BME280_humidity;BME280_pressure;Samples;Min_cycle;Max_cycle;Signal;HPM_P1;HPM_P2
2022/03/30 00:01:26;;;;;;;23.53;11.20;;;9.50;99.90;;;;;;4974083;28;20726;-49
2022/03/30 00:03:53;;;;;;;20.30;10.47;;;9.60;1.00;;;;;;4975563;28;20208;-51
2022/03/30 00:06:19;;;;;;;20.20;10.47;;;9.50;99.90;;;;;;4973764;28;20334;-50
2022/03/30 00:08:46;;;;;;;18.03;10.70;;;9.40;99.90;;;;;;4975482;28;20204;-50
2022/03/30 00:11:13;;;;;;;23.50;11.03;;;9.30;99.90;;;;;;4974902;28;20245;-51
2022/03/30 00:13:40;;;;;;;20.13;10.57;;;9.20;99.90;;;;;;4975568;28;20230;-50
2022/03/30 00:16:10;;;;;;;19.53;10.73;;;9.00;1.00;;;;;;4973087;28;20201;-52
2022/03/30 00:18:37;;;;;;;18.40;10.70;;;9.00;1.00;;;;;;4972981;28;20211;-50
2022/03/30 00:21:04;;;;;;;21.73;10.73;;;9.00;1.00;;;;;;4975339;28;20299;-53
2022/03/30 00:23:31;;;;;;;22.60;10.47;;;8.70;1.00;;;;;;4974982;28;20226;-51
2022/03/30 00:25:58;;;;;;;20.30;10.20;;;8.70;99.90;;;;;;4975727;28;20726;-51
2022/03/30 00:28:27;;;;;;;27.70;12.40;;;8.80;49.80;;;;;;4971622;28;20295;-53
2022/03/30 00:30:56;;;;;;;18.40;11.13;;;8.80;75.10;;;;;;4973526;28;20202;-51
2022/03/30 00:33:23;;;;;;;19.17;10.90;;;8.70;99.90;;;;;;4972813;28;20201;-53
2022/03/30 00:35:51;;;;;;;24.73;11.43;;;8.70;1.00;;;;;;4974409;28;20745;-49
2022/03/30 00:38:18;;;;;;;19.87;11.07;;;8.50;1.00;;;;;;4976704;28;20259;-51
2022/03/30 00:40:45;;;;;;;22.17;11.40;;;8.50;1.00;;;;;;4974397;28;20656;-51
2022/03/30 00:43:12;;;;;;;20.23;10.60;;;8.40;1.00;;;;;;4976451;28;20213;-52
2022/03/30 00:45:39;;;;;;;20.03;11.30;;;8.50;1.00;;;;;;4976675;28;20291;-52
2022/03/30 00:48:07;;;;;;;29.53;11.10;;;8.60;99.90;;;;;;4975064;28;20230;-52
2022/03/30 00:50:34;;;;;;;22.10;11.90;;;8.60;99.90;;;;;;4977410;28;20237;-50
2022/03/30 00:53:00;;;;;;;22.30;11.47;;;8.40;1.00;;;;;;4978772;28;20219;-52
2022/03/30 00:55:27;;;;;;;21.13;10.40;;;8.30;1.00;;;;;;4978909;28;20292;-52
2022/03/30 00:57:56;;;;;;;24.20;12.03;;;8.30;1.00;;;;;;4979819;28;20264;-54
2022/03/30 01:00:23;;;;;;;19.20;11.17;;;8.50;1.00;;;;;;4976740;28;20878;-52
2022/03/30 01:02:51;;;;;;;29.10;12.17;;;8.60;99.90;;;;;;4975815;28;20249;-51
2022/03/30 01:05:18;;;;;;;23.13;12.17;;;8.50;99.90;;;;;;4976883;28;20947;-50
2022/03/30 01:07:46;;;;;;;21.23;10.93;;;8.50;1.00;;;;;;4977851;28;20226;-54
2022/03/30 01:10:17;;;;;;;25.27;11.57;;;8.30;1.00;;;;;;4976070;28;20210;-49
2022/03/30 01:12:47;;;;;;;23.73;11.93;;;8.10;1.00;;;;;;4978213;28;20244;-50
2022/03/30 01:15:15;;;;;;;23.93;11.27;;;8.10;1.00;;;;;;4977618;28;20203;-52
2022/03/30 01:17:42;;;;;;;22.63;12.03;;;8.10;1.00;;;;;;4978437;28;20673;-50
2022/03/30 01:20:11;;;;;;;23.47;12.57;;;8.10;99.90;;;;;;4976339;28;20246;-52
2022/03/30 01:22:39;;;;;;;20.33;11.77;;;8.20;1.00;;;;;;4975413;28;20236;-50
2022/03/30 01:25:07;;;;;;;26.53;12.80;;;8.10;1.00;;;;;;5007376;28;20305;-53
2022/03/30 01:27:34;;;;;;;30.43;12.67;;;8.10;1.00;;;;;;4980141;28;20296;-51
2022/03/30 01:32:59;;;;;;;25.13;10.90;;;8.10;99.90;;;;;;4978652;28;20685;-52
2022/03/30 01:35:26;;;;;;;24.87;12.07;;;8.10;99.90;;;;;;4977578;28;20677;-54
2022/03/30 01:37:53;;;;;;;21.57;11.97;;;8.10;4.50;;;;;;4979735;28;20209;-53
2022/03/30 01:40:20;;;;;;;23.37;13.73;;;7.90;99.90;;;;;;4976207;28;20220;-51
2022/03/30 01:42:47;;;;;;;27.67;13.20;;;7.90;99.90;;;;;;4978868;28;20275;-51
2022/03/30 01:45:16;;;;;;;24.70;11.97;;;8.00;99.90;;;;;;4975573;28;20271;-53
2022/03/30 01:47:49;;;;;;;24.30;12.53;;;8.00;1.00;;;;;;4975071;28;20799;-53
2022/03/30 01:50:17;;;;;;;25.50;12.37;;;7.70;1.00;;;;;;4975738;28;20240;-50
2022/03/30 01:52:45;;;;;;;26.53;13.93;;;7.70;1.00;;;;;;4975063;28;20244;-52
2022/03/30 01:55:13;;;;;;;22.83;12.63;;;7.70;99.90;;;;;;4976022;28;20320;-53
2022/03/30 01:57:41;;;;;;;25.90;13.50;;;7.70;99.90;;;;;;4979358;28;20248;-51
2022/03/30 02:00:10;;;;;;;21.73;12.70;;;7.90;99.90;;;;;;4976279;28;20274;-52
2022/03/30 02:02:38;;;;;;;21.17;12.97;;;7.70;1.00;;;;;;4977753;28;20240;-53
2022/03/30 02:05:09;;;;;;;23.87;12.97;;;7.60;1.00;;;;;;4977783;28;20608;-52
2022/03/30 02:07:37;;;;;;;22.80;12.43;;;7.40;1.00;;;;;;4978093;28;20379;-55
2022/03/30 02:10:06;;;;;;;21.70;12.30;;;7.50;99.90;;;;;;4975901;28;20242;-50
2022/03/30 02:12:34;;;;;;;21.60;11.97;;;7.40;1.00;;;;;;4980761;28;20292;-52
2022/03/30 02:15:01;;;;;;;24.57;13.13;;;7.50;97.20;;;;;;4979239;28;20199;-50
2022/03/30 02:17:28;;;;;;;24.53;13.00;;;7.40;99.90;;;;;;4979234;28;20258;-54
2022/03/30 02:19:55;;;;;;;28.57;12.40;;;7.50;1.00;;;;;;4974922;28;20291;-53
2022/03/30 02:22:22;;;;;;;22.40;12.83;;;7.50;99.90;;;;;;4978639;28;20690;-52
2022/03/30 02:24:50;;;;;;;26.10;12.40;;;7.50;1.00;;;;;;4977209;28;20214;-52
2022/03/30 02:27:19;;;;;;;29.07;13.23;;;7.50;99.90;;;;;;4979166;28;20397;-52
2022/03/30 02:29:47;;;;;;;23.93;12.70;;;7.30;99.90;;;;;;4975430;28;20352;-51
2022/03/30 02:32:16;;;;;;;23.07;11.83;;;7.30;99.90;;;;;;4978223;28;20658;-53
2022/03/30 02:34:44;;;;;;;26.30;13.17;;;7.30;1.00;;;;;;4977035;28;20479;-52
2022/03/30 02:37:12;;;;;;;29.90;13.27;;;7.10;99.90;;;;;;4977122;28;20639;-54
2022/03/30 02:39:39;;;;;;;23.03;12.30;;;7.20;1.00;;;;;;4975688;28;20681;-54
2022/03/30 02:42:07;;;;;;;23.67;13.23;;;7.10;1.00;;;;;;4975339;28;20212;-51
2022/03/30 02:44:35;;;;;;;27.47;12.27;;;7.20;1.00;;;;;;4977147;28;20728;-53
2022/03/30 02:47:04;;;;;;;27.50;12.67;;;7.30;1.00;;;;;;4975707;28;21489;-51
2022/03/30 02:49:31;;;;;;;19.87;12.10;;;7.30;1.00;;;;;;4990663;28;20267;-53
2022/03/30 02:51:57;;;;;;;25.97;12.33;;;7.30;1.00;;;;;;4977191;28;20234;-52
2022/03/30 02:54:25;;;;;;;22.80;12.10;;;7.20;81.50;;;;;;4976358;28;20326;-50
2022/03/30 02:56:51;;;;;;;22.73;11.13;;;7.10;1.00;;;;;;4975191;28;20302;-55
2022/03/30 02:59:18;;;;;;;27.93;13.27;;;6.90;1.00;;;;;;4976582;28;20364;-52
2022/03/30 03:01:45;;;;;;;23.57;11.70;;;6.90;1.00;;;;;;4971913;28;20233;-53
2022/03/30 03:04:12;;;;;;;24.60;13.50;;;7.10;99.90;;;;;;4980413;28;20571;-52
2022/03/30 03:06:39;;;;;;;27.87;13.70;;;7.10;99.90;;;;;;4975008;28;20238;-53
2022/03/30 03:09:08;;;;;;;25.40;12.40;;;7.20;1.00;;;;;;4976396;28;20712;-52
2022/03/30 03:11:35;;;;;;;30.00;11.73;;;7.20;1.00;;;;;;4972597;28;20299;-52
2022/03/30 03:14:05;;;;;;;21.00;11.43;;;7.20;1.00;;;;;;4973655;28;20228;-53
2022/03/30 03:16:33;;;;;;;25.37;12.77;;;7.20;99.90;;;;;;4974300;28;20291;-54
2022/03/30 03:19:00;;;;;;;27.83;12.27;;;7.20;1.00;;;;;;4975727;28;20207;-52
2022/03/30 03:21:27;;;;;;;18.97;11.30;;;7.10;1.00;;;;;;4974202;28;20245;-53
2022/03/30 03:23:54;;;;;;;23.80;13.33;;;7.10;99.90;;;;;;4976119;28;20667;-52
2022/03/30 03:26:20;;;;;;;24.17;12.13;;;7.10;1.00;;;;;;4975919;28;20296;-52
2022/03/30 03:28:47;;;;;;;26.10;13.10;;;7.10;1.00;;;;;;4978730;28;20298;-52
2022/03/30 03:31:15;;;;;;;24.23;12.80;;;7.10;1.00;;;;;;4975767;28;20308;-53
2022/03/30 03:33:41;;;;;;;21.10;11.57;;;7.10;99.90;;;;;;4974633;28;20205;-51
2022/03/30 03:36:08;;;;;;;21.17;11.57;;;6.90;1.00;;;;;;4975197;28;20320;-54
2022/03/30 03:38:35;;;;;;;22.00;12.10;;;6.80;1.00;;;;;;4976366;28;20274;-53
2022/03/30 03:41:02;;;;;;;19.33;11.63;;;6.60;1.00;;;;;;4973391;28;20212;-51
2022/03/30 03:43:30;;;;;;;21.37;12.13;;;6.70;1.00;;;;;;4977369;28;20238;-51
2022/03/30 03:45:57;;;;;;;23.97;12.60;;;6.60;39.20;;;;;;4975905;28;20362;-50
2022/03/30 03:48:24;;;;;;;21.57;12.40;;;6.70;99.90;;;;;;4975327;28;20313;-50
2022/03/30 03:50:51;;;;;;;33.33;12.70;;;6.60;99.90;;;;;;4976717;28;20317;-50
2022/03/30 03:53:18;;;;;;;29.63;12.47;;;6.50;1.00;;;;;;4973714;28;20248;-50
2022/03/30 03:55:45;;;;;;;23.23;12.73;;;6.50;1.00;;;;;;4974500;28;20199;-53
2022/03/30 03:58:12;;;;;;;25.33;11.93;;;6.50;1.00;;;;;;4976048;28;20200;-52
2022/03/30 04:00:39;;;;;;;31.60;13.07;;;6.50;1.00;;;;;;4977429;28;20721;-53
2022/03/30 04:03:06;;;;;;;21.70;12.77;;;6.50;99.90;;;;;;4975413;28;20657;-54
2022/03/30 04:05:33;;;;;;;22.97;11.87;;;6.40;99.90;;;;;;4976669;28;20293;-52
2022/03/30 04:08:00;;;;;;;27.73;12.90;;;6.30;1.00;;;;;;4978097;28;20322;-54
2022/03/30 04:10:27;;;;;;;26.40;13.00;;;6.20;1.00;;;;;;4975646;28;20233;-50
2022/03/30 04:12:54;;;;;;;19.53;11.63;;;6.10;1.00;;;;;;4980532;28;20237;-52
2022/03/30 04:15:21;;;;;;;25.33;12.20;;;6.10;1.00;;;;;;4980604;28;20620;-53
2022/03/30 04:17:48;;;;;;;24.97;11.73;;;6.00;1.00;;;;;;4981546;28;20691;-52
2022/03/30 04:20:16;;;;;;;33.07;13.53;;;6.00;1.00;;;;;;4978094;28;20280;-53
2022/03/30 04:22:43;;;;;;;25.57;11.83;;;6.10;1.00;;;;;;4975214;28;20276;-53
2022/03/30 04:25:11;;;;;;;22.80;10.87;;;6.10;1.00;;;;;;4979841;28;20309;-53
2022/03/30 04:27:48;;;;;;;28.63;12.00;;;6.00;1.00;;;;;;4978775;28;20217;-53
2022/03/30 04:30:17;;;;;;;25.23;12.50;;;6.00;1.00;;;;;;4979019;28;20486;-53
2022/03/30 04:32:45;;;;;;;27.67;12.70;;;6.10;1.00;;;;;;4978580;28;20667;-53
2022/03/30 04:35:25;;;;;;;29.17;11.57;;;5.90;1.00;;;;;;4978363;28;20282;-51
2022/03/30 04:37:56;;;;;;;26.37;12.57;;;5.90;1.00;;;;;;4979919;28;20267;-52
2022/03/30 04:40:25;;;;;;;23.50;10.67;;;5.80;1.80;;;;;;4979129;28;20619;-51
2022/03/30 04:42:52;;;;;;;22.83;12.23;;;5.90;1.00;;;;;;4981161;28;20242;-54
2022/03/30 04:45:20;;;;;;;24.00;11.40;;;5.90;1.00;;;;;;4978400;28;20230;-52
2022/03/30 04:47:47;;;;;;;21.93;11.53;;;5.80;1.00;;;;;;4978718;28;20314;-54
2022/03/30 04:50:14;;;;;;;21.43;10.77;;;5.80;1.00;;;;;;4979589;28;20613;-52
2022/03/30 04:52:42;;;;;;;24.33;12.10;;;5.70;1.00;;;;;;4980676;28;20605;-54
2022/03/30 04:55:09;;;;;;;31.00;11.77;;;5.60;6.10;;;;;;4977314;28;20337;-53
2022/03/30 04:57:37;;;;;;;20.27;11.37;;;5.60;7.10;;;;;;4979798;28;20223;-52
2022/03/30 05:00:08;;;;;;;22.37;11.30;;;5.70;12.70;;;;;;4973204;28;20298;-50
2022/03/30 05:02:36;;;;;;;27.07;12.83;;;5.70;1.00;;;;;;4977017;28;20234;-54
2022/03/30 05:05:04;;;;;;;25.07;12.03;;;5.80;1.00;;;;;;4975062;28;20266;-52
2022/03/30 05:07:31;;;;;;;19.77;10.13;;;5.70;1.00;;;;;;4976815;28;20293;-52
2022/03/30 05:09:59;;;;;;;24.90;10.63;;;5.70;1.00;;;;;;4976420;28;20228;-53
2022/03/30 05:12:26;;;;;;;21.60;10.20;;;5.80;1.00;;;;;;4981115;28;20662;-53
2022/03/30 05:14:53;;;;;;;25.33;11.80;;;5.90;99.90;;;;;;4978891;28;20201;-51
2022/03/30 05:17:20;;;;;;;21.40;11.53;;;5.80;1.00;;;;;;4977782;28;20806;-52
2022/03/30 05:19:47;;;;;;;20.80;10.97;;;5.80;1.00;;;;;;4973795;28;20301;-51
2022/03/30 05:22:13;;;;;;;23.27;11.63;;;5.80;1.00;;;;;;4981206;28;20201;-56
2022/03/30 05:24:40;;;;;;;23.20;11.53;;;5.80;1.00;;;;;;4981038;28;20196;-55
2022/03/30 05:27:09;;;;;;;26.53;10.93;;;5.70;1.00;;;;;;4980652;28;20264;-52
2022/03/30 05:29:36;;;;;;;22.27;11.43;;;5.60;1.00;;;;;;4977699;28;20235;-52
2022/03/30 05:32:05;;;;;;;21.47;10.60;;;5.60;1.00;;;;;;4979192;28;20672;-53
2022/03/30 05:34:40;;;;;;;19.93;11.03;;;5.70;1.00;;;;;;4976359;28;20281;-53
2022/03/30 05:37:07;;;;;;;20.23;11.90;;;5.70;1.00;;;;;;4975016;28;20223;-54
2022/03/30 05:39:35;;;;;;;21.80;10.90;;;5.70;1.00;;;;;;4978926;28;20662;-53
2022/03/30 05:42:03;;;;;;;24.13;10.77;;;5.80;1.00;;;;;;4970900;28;20880;-50
2022/03/30 05:44:29;;;;;;;22.77;11.20;;;5.60;1.00;;;;;;4979736;28;20819;-51
2022/03/30 05:46:56;;;;;;;20.40;11.50;;;5.50;1.00;;;;;;4977571;28;20214;-53
2022/03/30 05:49:24;;;;;;;22.47;11.90;;;5.60;1.00;;;;;;4978794;28;20310;-52
2022/03/30 05:51:51;;;;;;;20.57;11.23;;;5.60;1.00;;;;;;4979421;28;20307;-54
2022/03/30 05:54:18;;;;;;;25.13;11.47;;;5.60;1.00;;;;;;4980999;28;20680;-51
2022/03/30 05:57:00;;;;;;;18.17;11.23;;;5.60;1.00;;;;;;4979000;28;20642;-54
2022/03/30 05:59:32;;;;;;;26.43;10.83;;;5.70;1.00;;;;;;4978531;28;20624;-52
2022/03/30 06:02:00;;;;;;;21.50;11.83;;;5.90;1.00;;;;;;4971641;28;20215;-51
2022/03/30 06:04:27;;;;;;;22.13;12.10;;;5.90;1.00;;;;;;4978014;28;20670;-55
2022/03/30 06:06:54;;;;;;;24.47;11.97;;;5.90;99.90;;;;;;4970094;28;20234;-53
2022/03/30 06:09:21;;;;;;;24.83;10.70;;;5.90;99.90;;;;;;4973093;28;20223;-52
2022/03/30 06:12:06;;;;;;;23.20;12.07;;;5.90;1.00;;;;;;4975654;28;20292;-54
2022/03/30 06:14:34;;;;;;;24.70;11.67;;;5.80;99.90;;;;;;4976201;28;20200;-53
2022/03/30 06:17:03;;;;;;;21.57;11.30;;;5.80;1.00;;;;;;4977376;28;20861;-50
2022/03/30 06:19:34;;;;;;;21.23;10.90;;;5.80;99.90;;;;;;4972898;28;20242;-52
2022/03/30 06:22:05;;;;;;;26.23;11.53;;;5.70;1.00;;;;;;4975798;28;20607;-52
2022/03/30 06:24:36;;;;;;;25.77;10.90;;;5.80;1.00;;;;;;4974146;28;20225;-52
2022/03/30 06:27:04;;;;;;;20.83;11.37;;;5.70;1.00;;;;;;4975818;28;20304;-52
2022/03/30 06:29:34;;;;;;;21.30;11.63;;;5.70;1.00;;;;;;4970240;28;20219;-52
2022/03/30 06:32:02;;;;;;;28.67;12.70;;;5.90;1.00;;;;;;4977165;28;20968;-52
2022/03/30 06:34:30;;;;;;;25.67;12.47;;;6.00;1.00;;;;;;4970399;28;20213;-52
2022/03/30 06:36:57;;;;;;;24.83;12.70;;;6.00;99.90;;;;;;4979003;28;20338;-53
2022/03/30 06:39:23;;;;;;;24.97;12.10;;;6.20;1.00;;;;;;4976433;28;20264;-55
2022/03/30 06:41:50;;;;;;;24.30;11.90;;;6.30;1.00;;;;;;4975002;28;20204;-53
2022/03/30 06:44:17;;;;;;;24.07;11.87;;;6.30;1.00;;;;;;4977580;28;20239;-53
2022/03/30 06:46:44;;;;;;;23.30;11.47;;;6.40;99.90;;;;;;4977667;28;20611;-53
2022/03/30 06:49:11;;;;;;;23.23;12.10;;;6.70;71.60;;;;;;4976585;28;20656;-52
2022/03/30 06:51:38;;;;;;;25.73;12.30;;;6.80;99.90;;;;;;4976501;28;20299;-54
2022/03/30 06:54:05;;;;;;;25.57;12.63;;;7.00;99.90;;;;;;4979506;28;20678;-52
2022/03/30 06:56:32;;;;;;;25.20;12.27;;;7.10;1.00;;;;;;4978113;28;20270;-52
2022/03/30 06:58:59;;;;;;;24.17;12.27;;;7.00;1.00;;;;;;4978733;28;20334;-53
2022/03/30 07:01:34;;;;;;;24.27;11.80;;;7.00;1.00;;;;;;4976315;28;20213;-51
2022/03/30 07:04:02;;;;;;;26.97;12.23;;;7.30;1.00;;;;;;4974966;28;20553;-52
2022/03/30 07:06:28;;;;;;;23.97;12.43;;;7.40;1.00;;;;;;4977114;28;20625;-53
2022/03/30 07:11:41;;;;;;;25.23;12.60;;;7.30;1.00;;;;;;4974557;28;20247;-53
2022/03/30 07:14:08;;;;;;;23.27;11.70;;;7.60;99.90;;;;;;4973410;28;20280;-53
2022/03/30 07:16:34;;;;;;;26.07;12.60;;;7.50;1.00;;;;;;4976960;28;20620;-52
2022/03/30 07:19:01;;;;;;;23.80;12.50;;;7.40;1.00;;;;;;4975267;28;20211;-53
2022/03/30 07:21:28;;;;;;;23.80;12.27;;;7.60;1.00;;;;;;4976821;28;20299;-52
2022/03/30 07:23:55;;;;;;;26.23;12.87;;;7.60;99.90;;;;;;4975793;28;20294;-53
2022/03/30 07:26:22;;;;;;;19.37;11.90;;;7.70;1.00;;;;;;4974871;28;20201;-52
2022/03/30 07:28:50;;;;;;;23.27;12.60;;;7.70;1.00;;;;;;4975243;28;20708;-50
2022/03/30 07:31:17;;;;;;;24.67;12.20;;;7.70;1.00;;;;;;4978071;28;20225;-52
2022/03/30 07:33:43;;;;;;;20.20;12.00;;;8.10;1.00;;;;;;4974327;28;20624;-54
2022/03/30 07:36:10;;;;;;;21.00;11.73;;;8.20;15.80;;;;;;4977630;28;20201;-53
2022/03/30 07:38:37;;;;;;;23.20;12.47;;;8.20;1.00;;;;;;4977794;28;20215;-52
2022/03/30 07:41:05;;;;;;;22.37;11.77;;;8.60;1.00;;;;;;4976165;28;20204;-51
2022/03/30 07:43:32;;;;;;;25.07;11.87;;;9.00;99.90;;;;;;4977610;28;20210;-55
2022/03/30 07:45:59;;;;;;;20.57;11.17;;;8.90;1.00;;;;;;4979659;28;20293;-53
2022/03/30 07:48:26;;;;;;;22.47;10.93;;;9.10;1.00;;;;;;4980282;28;20689;-51
2022/03/30 07:50:53;;;;;;;21.57;10.60;;;9.30;1.00;;;;;;4980734;28;21385;-51
2022/03/30 07:53:25;;;;;;;25.60;11.77;;;9.60;99.90;;;;;;4994328;28;20562;-50
2022/03/30 07:55:51;;;;;;;23.63;12.80;;;9.70;99.90;;;;;;4980673;28;20235;-51
2022/03/30 07:58:18;;;;;;;21.27;10.40;;;9.80;99.90;;;;;;4979334;28;20195;-54
2022/03/30 08:00:45;;;;;;;25.20;11.10;;;10.10;1.00;;;;;;4980084;28;20631;-53
2022/03/30 08:03:12;;;;;;;20.70;10.50;;;9.70;1.00;;;;;;4979646;28;20205;-52
2022/03/30 08:05:40;;;;;;;20.70;10.33;;;9.50;1.00;;;;;;4980116;28;20199;-53
2022/03/30 08:08:07;;;;;;;23.37;11.43;;;10.10;99.90;;;;;;4979634;28;20559;-51
2022/03/30 08:10:35;;;;;;;19.87;10.47;;;10.60;1.00;;;;;;4982098;28;20609;-52
2022/03/30 08:13:02;;;;;;;23.37;10.63;;;10.70;99.90;;;;;;4981096;28;20802;-51
2022/03/30 08:15:30;;;;;;;21.70;9.83;;;10.50;1.00;;;;;;4978232;28;20200;-51
2022/03/30 08:17:57;;;;;;;14.63;9.37;;;10.40;1.00;;;;;;4980697;28;20222;-53
2022/03/30 08:23:11;;;;;;;24.20;10.57;;;10.40;1.00;;;;;;4979935;28;20274;-51
2022/03/30 08:25:39;;;;;;;23.90;10.63;;;10.30;1.00;;;;;;4979275;28;20236;-50
2022/03/30 08:28:06;;;;;;;20.27;9.77;;;10.50;1.00;;;;;;4980826;28;20299;-52
2022/03/30 08:30:33;;;;;;;20.93;9.80;;;10.50;1.00;;;;;;4980307;28;20799;-51
2022/03/30 08:33:01;;;;;;;21.77;10.33;;;10.50;1.00;;;;;;4979778;28;20231;-50
2022/03/30 08:35:30;;;;;;;15.90;9.70;;;10.40;1.00;;;;;;4982620;28;20219;-52
2022/03/30 08:37:57;;;;;;;15.77;9.43;;;10.60;1.00;;;;;;4979936;28;20251;-51
2022/03/30 08:40:24;;;;;;;18.27;9.57;;;10.50;1.00;;;;;;4982098;28;20210;-51
2022/03/30 08:42:53;;;;;;;15.03;8.63;;;10.50;1.00;;;;;;4980919;28;20209;-49
2022/03/30 08:45:20;;;;;;;18.47;9.47;;;10.60;1.00;;;;;;4982393;28;20230;-51
2022/03/30 08:47:47;;;;;;;14.77;9.33;;;10.50;1.00;;;;;;4980462;28;20270;-54
2022/03/30 08:50:14;;;;;;;19.13;9.20;;;10.50;1.00;;;;;;4982298;28;20223;-53
2022/03/30 08:52:45;;;;;;;15.40;8.47;;;10.40;1.00;;;;;;4981825;28;20247;-52
2022/03/30 08:55:12;;;;;;;17.57;9.53;;;10.40;99.90;;;;;;4977565;28;20229;-51
2022/03/30 08:57:39;;;;;;;16.10;9.23;;;10.80;1.00;;;;;;4980686;28;20198;-51
2022/03/30 09:00:12;;;;;;;14.07;8.80;;;10.90;1.00;;;;;;4978793;28;20316;-52
2022/03/30 09:02:45;;;;;;;14.60;9.17;;;11.00;1.00;;;;;;4978387;28;20646;-52
2022/03/30 09:05:23;;;;;;;13.97;8.77;;;11.50;99.90;;;;;;4980620;28;20220;-50
2022/03/30 09:07:54;;;;;;;14.60;9.80;;;11.90;93.00;;;;;;4980819;28;20232;-53
2022/03/30 09:10:32;;;;;;;19.17;9.07;;;11.40;99.90;;;;;;4978657;28;20231;-49
2022/03/30 09:12:59;;;;;;;14.03;8.63;;;11.40;99.90;;;;;;4980479;28;20213;-51
2022/03/30 09:15:26;;;;;;;15.87;9.20;;;11.80;99.90;;;;;;4976137;28;20302;-50
2022/03/30 09:20:48;;;;;;;16.50;9.63;;;12.00;1.00;;;;;;4980103;28;20239;-50
2022/03/30 09:23:24;;;;;;;21.20;10.17;;;12.10;1.00;;;;;;4981160;28;20213;-51
2022/03/30 09:25:52;;;;;;;15.33;9.23;;;11.70;99.90;;;;;;4978440;28;20221;-53
2022/03/30 09:28:23;;;;;;;16.97;9.40;;;11.70;99.90;;;;;;4973701;28;20320;-52
2022/03/30 09:30:52;;;;;;;17.63;9.63;;;11.70;92.50;;;;;;4975927;28;20201;-51
2022/03/30 09:33:21;;;;;;;15.23;9.70;;;11.70;1.00;;;;;;4975334;28;20213;-50
2022/03/30 09:35:48;;;;;;;17.90;9.47;;;12.10;1.00;;;;;;4978147;28;20578;-52
2022/03/30 09:38:18;;;;;;;16.23;9.70;;;12.30;1.00;;;;;;4976391;28;20685;-50
2022/03/30 09:41:00;;;;;;;18.30;10.00;;;12.50;1.00;;;;;;4973757;28;20658;-50
2022/03/30 09:43:29;;;;;;;16.23;9.57;;;12.80;1.00;;;;;;4975827;28;20245;-49
2022/03/30 09:46:02;;;;;;;18.53;9.23;;;12.80;1.00;;;;;;4977781;28;20205;-51
2022/03/30 09:48:35;;;;;;;18.13;9.27;;;13.50;1.00;;;;;;4976913;28;20210;-51
2022/03/30 09:51:06;;;;;;;15.20;9.27;;;13.40;99.90;;;;;;4975150;28;20202;-50
2022/03/30 09:53:35;;;;;;;16.57;10.27;;;12.80;99.90;;;;;;4979852;28;20646;-51
2022/03/30 09:56:06;;;;;;;19.23;9.63;;;13.50;99.90;;;;;;4978452;28;20237;-53
2022/03/30 09:58:35;;;;;;;16.30;9.63;;;13.80;99.90;;;;;;4977838;28;20205;-53
2022/03/30 10:01:22;;;;;;;16.40;9.73;;;13.60;99.90;;;;;;4979095;28;20237;-51
2022/03/30 10:04:00;;;;;;;17.33;8.70;;;13.30;99.90;;;;;;4977784;28;20603;-51
2022/03/30 10:06:40;;;;;;;13.57;9.07;;;12.50;1.00;;;;;;4976279;28;20731;-52
2022/03/30 10:09:13;;;;;;;18.27;10.63;;;12.70;1.00;;;;;;4974136;28;20305;-53
2022/03/30 10:11:41;;;;;;;12.07;8.77;;;13.10;99.90;;;;;;4976298;28;20285;-53
2022/03/30 10:14:09;;;;;;;14.50;9.33;;;13.00;99.90;;;;;;4978863;28;20796;-53
2022/03/30 10:16:40;;;;;;;17.07;9.57;;;13.50;99.90;;;;;;4977892;28;20210;-52
2022/03/30 10:19:08;;;;;;;15.03;9.77;;;13.00;99.90;;;;;;4975652;28;20305;-52
2022/03/30 10:22:00;;;;;;;16.03;10.93;;;13.30;99.90;;;;;;4976909;28;20202;-53
2022/03/30 10:24:51;;;;;;;18.23;9.30;;;13.50;99.90;;;;;;4976227;28;20204;-53
2022/03/30 10:27:47;;;;;;;11.40;7.80;;;13.40;99.90;;;;;;4974459;28;20210;-52
2022/03/30 10:30:14;;;;;;;19.57;9.40;;;13.60;99.90;;;;;;4974269;28;20257;-50
2022/03/30 10:32:41;;;;;;;14.77;8.67;;;13.60;21.50;;;;;;4973054;28;20311;-52
2022/03/30 10:35:11;;;;;;;14.97;9.73;;;14.00;1.00;;;;;;4972881;28;20288;-53
2022/03/30 10:37:59;;;;;;;15.63;9.13;;;14.00;1.00;;;;;;4974814;28;20677;-49
2022/03/30 10:40:29;;;;;;;13.27;8.73;;;13.90;1.00;;;;;;4974928;28;20206;-50
2022/03/30 10:42:58;;;;;;;13.20;9.17;;;13.90;1.00;;;;;;4973237;28;20297;-50
2022/03/30 10:45:33;;;;;;;14.20;8.30;;;14.00;1.00;;;;;;4974214;28;20217;-52
2022/03/30 10:48:28;;;;;;;13.27;8.63;;;13.80;1.00;;;;;;4971901;28;20311;-51
2022/03/30 10:50:57;;;;;;;17.10;9.07;;;13.90;1.00;;;;;;4973463;28;20686;-49
2022/03/30 10:53:35;;;;;;;16.00;8.87;;;13.80;1.00;;;;;;4974395;28;20946;-50
2022/03/30 10:56:14;;;;;;;13.33;9.17;;;13.60;1.00;;;;;;4973451;28;20300;-52
2022/03/30 10:58:49;;;;;;;13.17;9.40;;;13.60;1.00;;;;;;4975206;28;20264;-50
2022/03/30 11:01:38;;;;;;;12.93;7.87;;;13.70;1.00;;;;;;4970465;28;20216;-49
2022/03/30 11:04:14;;;;;;;13.03;8.90;;;13.90;1.00;;;;;;4973258;28;20209;-51
2022/03/30 11:06:43;;;;;;;15.50;9.10;;;14.10;1.00;;;;;;4976801;28;20324;-50
2022/03/30 11:09:21;;;;;;;14.50;8.70;;;14.10;1.00;;;;;;4973620;28;20324;-52
2022/03/30 11:12:14;;;;;;;17.80;9.80;;;13.90;1.00;;;;;;4975691;28;20238;-50
2022/03/30 11:14:59;;;;;;;14.60;8.80;;;14.00;1.00;;;;;;4974277;28;20686;-50
2022/03/30 11:17:32;;;;;;;15.53;8.83;;;14.10;1.00;;;;;;4976146;28;20211;-53
2022/03/30 11:19:58;;;;;;;13.07;8.63;;;14.20;1.00;;;;;;4972427;28;20291;-53
2022/03/30 11:22:28;;;;;;;11.30;8.13;;;14.50;1.00;;;;;;4974916;28;20659;-52
2022/03/30 11:25:10;;;;;;;17.90;9.80;;;14.80;1.00;;;;;;4970737;28;20206;-50
2022/03/30 11:27:38;;;;;;;10.93;6.80;;;14.60;1.00;;;;;;4975207;28;20666;-50
2022/03/30 11:30:35;;;;;;;13.03;8.30;;;14.70;1.00;;;;;;4987808;28;20246;-50
2022/03/30 11:33:06;;;;;;;14.17;8.43;;;14.70;1.00;;;;;;4964713;28;20627;-51
2022/03/30 11:35:37;;;;;;;12.20;9.03;;;14.40;1.00;;;;;;4969485;28;20714;-50
2022/03/30 11:38:32;;;;;;;13.77;8.73;;;15.00;1.00;;;;;;4973360;28;20246;-50
2022/03/30 11:41:02;;;;;;;14.10;9.10;;;15.10;1.00;;;;;;4971140;28;20294;-51
2022/03/30 11:43:29;;;;;;;17.03;8.73;;;14.60;1.00;;;;;;4975007;28;20203;-52
2022/03/30 11:46:00;;;;;;;11.27;7.37;;;14.40;1.00;;;;;;4974522;28;20621;-51
2022/03/30 11:48:35;;;;;;;10.70;7.70;;;14.70;1.00;;;;;;4971726;28;20217;-51
2022/03/30 11:51:05;;;;;;;11.73;7.83;;;15.00;1.00;;;;;;4971655;28;21237;-50
2022/03/30 11:53:35;;;;;;;11.43;7.20;;;14.80;1.00;;;;;;4972639;28;20656;-51
2022/03/30 11:56:06;;;;;;;11.27;7.67;;;15.30;1.00;;;;;;4970916;28;20196;-51
2022/03/30 11:58:34;;;;;;;8.73;6.13;;;15.40;1.00;;;;;;4974043;28;20205;-51
2022/03/30 12:01:05;;;;;;;8.47;6.57;;;15.40;99.90;;;;;;4974751;28;20235;-50
2022/03/30 12:03:33;;;;;;;10.20;6.60;;;15.20;99.90;;;;;;4970738;28;20225;-53
2022/03/30 12:06:04;;;;;;;11.60;6.07;;;15.20;99.90;;;;;;4971082;28;20246;-49
2022/03/30 12:08:44;;;;;;;8.43;6.20;;;15.30;1.00;;;;;;4973313;28;20232;-50
2022/03/30 12:11:13;;;;;;;9.67;6.80;;;15.00;99.90;;;;;;4973582;28;20769;-52
2022/03/30 12:13:40;;;;;;;8.70;6.00;;;14.90;99.90;;;;;;4973466;28;20229;-52
2022/03/30 12:16:15;;;;;;;9.27;6.23;;;15.50;99.90;;;;;;4973952;28;20214;-50
2022/03/30 12:18:44;;;;;;;11.70;6.53;;;15.40;99.90;;;;;;4971179;28;20722;-56
2022/03/30 12:21:25;;;;;;;8.47;5.93;;;15.60;99.90;;;;;;4974442;28;20259;-51
2022/03/30 12:24:04;;;;;;;8.83;5.73;;;15.10;99.90;;;;;;4975551;28;21443;-50
2022/03/30 12:26:58;;;;;;;11.40;5.70;;;14.90;99.90;;;;;;4972566;28;22219;-51
2022/03/30 12:29:30;;;;;;;10.40;6.00;;;15.40;99.90;;;;;;4972306;28;20925;-51
2022/03/30 12:31:59;;;;;;;8.13;6.07;;;15.60;99.90;;;;;;4975092;28;20293;-50
2022/03/30 12:34:30;;;;;;;7.53;5.03;;;16.30;99.90;;;;;;4972270;28;20207;-52
2022/03/30 12:37:00;;;;;;;9.80;6.13;;;16.30;99.90;;;;;;4979220;28;20208;-51
2022/03/30 12:39:40;;;;;;;10.63;6.20;;;16.00;98.70;;;;;;4971893;28;22526;-51
2022/03/30 12:42:11;;;;;;;8.33;6.57;;;16.30;99.90;;;;;;4973571;28;20228;-52
2022/03/30 12:44:52;;;;;;;9.60;6.60;;;15.80;99.90;;;;;;4977392;28;20200;-50
2022/03/30 12:47:32;;;;;;;8.67;5.47;;;15.10;99.90;;;;;;4975377;28;20903;-51
2022/03/30 12:50:04;;;;;;;10.03;6.07;;;15.30;99.90;;;;;;4973737;28;20286;-51
2022/03/30 12:52:39;;;;;;;10.07;6.20;;;16.10;99.90;;;;;;4970043;28;20224;-51
2022/03/30 12:55:14;;;;;;;10.63;6.57;;;15.80;99.90;;;;;;4967149;28;20231;-52
2022/03/30 12:58:06;;;;;;;9.67;6.07;;;15.50;99.90;;;;;;4975519;28;20207;-52
2022/03/30 13:00:38;;;;;;;10.03;5.67;;;16.00;99.90;;;;;;4974306;28;20301;-50
2022/03/30 13:03:07;;;;;;;8.93;5.43;;;16.00;46.70;;;;;;4967791;28;20291;-52
2022/03/30 13:05:35;;;;;;;7.90;6.17;;;16.10;2.40;;;;;;4972943;28;20239;-50
2022/03/30 13:08:16;;;;;;;9.70;5.77;;;15.70;9.60;;;;;;4974476;28;20665;-51